Time;durP1;ratioP1;P1;durP2;ratioP2;P2;SDS_P1;SDS_P2;PMS_P1;PMS_P2;Temp;Humidity;BMP_temperature;BMP_pressure;BME280_temperature;BME280_humidity;BME280_pressure;Samples;Min_cycle;Max_cycle;Signal;HPM_P1;HPM_P2
2023/12/08 00:02:14;;;;;;;28.93;17.73;;;1.50;95.10;;;;;;5089565;28;20445;-72
2023/12/08 00:04:40;;;;;;;30.38;18.08;;;1.60;94.90;;;;;;5088552;28;20979;-72
2023/12/08 00:07:05;;;;;;;28.77;16.97;;;1.50;94.90;;;;;;5089204;28;20489;-72
2023/12/08 00:09:31;;;;;;;29.63;17.33;;;1.60;94.80;;;;;;5098460;28;20400;-72
2023/12/08 00:11:57;;;;;;;29.40;17.48;;;1.50;94.80;;;;;;5107427;28;20949;-72
2023/12/08 00:14:23;;;;;;;28.67;17.70;;;1.60;94.70;;;;;;5109382;28;20415;-72
2023/12/08 00:16:49;;;;;;;31.15;18.33;;;1.50;94.70;;;;;;5106874;28;20493;-72
2023/12/08 00:19:14;;;;;;;27.60;17.88;;;1.50;94.70;;;;;;5107165;28;20426;-72
2023/12/08 00:21:40;;;;;;;30.13;18.17;;;1.50;94.60;;;;;;5089621;28;20441;-72
2023/12/08 00:24:06;;;;;;;28.48;17.77;;;1.60;94.60;;;;;;5109152;28;20473;-72
2023/12/08 00:26:31;;;;;;;28.73;18.65;;;1.50;94.70;;;;;;5107056;28;20949;-72
2023/12/08 00:28:57;;;;;;;29.33;17.77;;;1.50;94.70;;;;;;5108757;28;20409;-72
2023/12/08 00:31:23;;;;;;;32.97;18.00;;;1.60;94.70;;;;;;5107119;28;20505;-72
2023/12/08 00:33:48;;;;;;;27.70;18.35;;;1.50;94.70;;;;;;5099299;28;20499;-72
2023/12/08 00:36:18;;;;;;;29.17;18.65;;;1.60;94.60;;;;;;5102798;28;20422;-72
2023/12/08 00:38:44;;;;;;;30.63;18.20;;;1.50;94.60;;;;;;5107586;28;20407;-72
2023/12/08 00:41:10;;;;;;;29.05;18.30;;;1.50;94.50;;;;;;5093195;28;20421;-72
2023/12/08 00:43:36;;;;;;;29.35;18.10;;;1.60;94.50;;;;;;5106660;28;20401;-72
2023/12/08 00:46:02;;;;;;;28.42;17.88;;;1.50;94.50;;;;;;5104264;28;20418;-72
2023/12/08 00:48:28;;;;;;;29.13;18.08;;;1.50;94.40;;;;;;5106136;28;20409;-72
2023/12/08 00:50:53;;;;;;;29.50;18.73;;;1.50;94.40;;;;;;5092589;28;20480;-72
2023/12/08 00:53:19;;;;;;;31.48;19.70;;;1.50;94.30;;;;;;5093288;28;20407;-72
2023/12/08 00:55:44;;;;;;;32.95;18.23;;;1.50;94.30;;;;;;5095646;28;20449;-72
2023/12/08 00:58:12;;;;;;;28.50;18.13;;;1.50;94.40;;;;;;5092194;28;20418;-72
2023/12/08 01:00:37;;;;;;;30.27;18.83;;;1.50;94.30;;;;;;5095833;28;20410;-72
2023/12/08 01:03:03;;;;;;;30.13;18.13;;;1.50;94.30;;;;;;5091478;28;20769;-72
2023/12/08 01:05:28;;;;;;;30.50;18.05;;;1.50;94.30;;;;;;5087826;28;20410;-72
2023/12/08 01:07:54;;;;;;;31.13;18.92;;;1.50;94.30;;;;;;5093033;28;20979;-72
2023/12/08 01:10:20;;;;;;;29.60;18.10;;;1.50;94.30;;;;;;5090645;28;20935;-72
2023/12/08 01:12:46;;;;;;;29.38;18.30;;;1.40;94.30;;;;;;5087125;28;21114;-72
2023/12/08 01:15:12;;;;;;;31.07;19.17;;;1.40;94.30;;;;;;5088039;28;20417;-72
2023/12/08 01:17:37;;;;;;;30.60;18.53;;;1.40;94.40;;;;;;5095990;28;20396;-72
2023/12/08 01:20:05;;;;;;;28.90;18.63;;;1.40;94.40;;;;;;5091391;28;20459;-72
2023/12/08 01:22:30;;;;;;;30.63;18.60;;;1.40;94.40;;;;;;5097156;28;20517;-72
2023/12/08 01:24:56;;;;;;;29.98;18.27;;;1.40;94.40;;;;;;5103155;28;20484;-72
2023/12/08 01:27:22;;;;;;;29.58;18.50;;;1.40;94.40;;;;;;5097497;28;20441;-72
2023/12/08 01:29:48;;;;;;;29.50;18.42;;;1.40;94.40;;;;;;5094054;28;21047;-72
2023/12/08 01:32:13;;;;;;;29.77;18.93;;;1.40;94.40;;;;;;5100311;28;20753;-72
2023/12/08 01:34:39;;;;;;;29.13;18.43;;;1.40;94.50;;;;;;5100252;28;20432;-72
2023/12/08 01:37:04;;;;;;;28.63;18.00;;;1.40;94.40;;;;;;5100089;28;20476;-72
2023/12/08 01:39:30;;;;;;;28.70;18.57;;;1.40;94.30;;;;;;5091064;28;20811;-72
2023/12/08 01:41:56;;;;;;;28.93;18.60;;;1.40;94.30;;;;;;5100513;28;20932;-72
2023/12/08 01:44:22;;;;;;;28.60;17.85;;;1.50;94.30;;;;;;5099166;28;20778;-72
2023/12/08 01:46:48;;;;;;;28.83;17.73;;;1.50;94.30;;;;;;5090042;28;21196;-72
2023/12/08 01:49:15;;;;;;;27.20;17.98;;;1.50;94.30;;;;;;5101430;28;20525;-72
2023/12/08 01:51:42;;;;;;;28.45;18.00;;;1.50;94.20;;;;;;5082729;28;20408;-72
2023/12/08 01:54:08;;;;;;;27.67;17.38;;;1.50;94.20;;;;;;5100203;28;20902;-72
2023/12/08 01:56:34;;;;;;;28.33;17.55;;;1.50;94.20;;;;;;5099540;28;20408;-72
2023/12/08 01:58:59;;;;;;;26.92;17.42;;;1.50;94.20;;;;;;5101084;28;20932;-72
2023/12/08 02:01:26;;;;;;;28.45;17.58;;;1.50;94.10;;;;;;5099826;28;20400;-72
2023/12/08 02:03:51;;;;;;;26.48;16.73;;;1.50;94.00;;;;;;5099227;28;20445;-72
2023/12/08 02:06:18;;;;;;;27.47;17.33;;;1.50;93.90;;;;;;5099783;28;20403;-72
2023/12/08 02:08:46;;;;;;;24.07;15.57;;;1.50;93.90;;;;;;5099025;28;20902;-72
2023/12/08 02:11:13;;;;;;;26.33;17.52;;;1.50;93.80;;;;;;5098547;28;20438;-72
2023/12/08 02:13:40;;;;;;;25.17;16.20;;;1.50;93.60;;;;;;5098603;28;20457;-72
2023/12/08 02:16:27;;;;;;;26.38;16.45;;;1.50;93.50;;;;;;5099050;28;20455;-72
2023/12/08 02:18:54;;;;;;;26.27;16.20;;;1.50;93.40;;;;;;5094800;28;21037;-72
2023/12/08 02:21:21;;;;;;;25.17;15.90;;;1.50;93.00;;;;;;5094188;28;20495;-72
2023/12/08 02:23:48;;;;;;;23.05;15.20;;;1.60;92.70;;;;;;5096897;28;20414;-72
2023/12/08 02:26:14;;;;;;;23.25;15.43;;;1.60;92.60;;;;;;5103027;28;20408;-72
2023/12/08 02:28:40;;;;;;;24.40;15.00;;;1.50;92.50;;;;;;5098798;28;20473;-72
2023/12/08 02:31:12;;;;;;;22.30;14.27;;;1.60;92.20;;;;;;5103819;28;20422;-73
2023/12/08 02:33:39;;;;;;;23.02;15.30;;;1.60;92.30;;;;;;5098125;28;20567;-73
2023/12/08 02:36:06;;;;;;;23.98;15.48;;;1.60;92.40;;;;;;5103349;28;20955;-73
2023/12/08 02:38:35;;;;;;;22.48;15.63;;;1.60;92.00;;;;;;5090476;28;20406;-72
2023/12/08 02:41:01;;;;;;;23.73;15.02;;;1.60;92.00;;;;;;5102355;28;20446;-73
2023/12/08 02:43:27;;;;;;;21.45;14.93;;;1.60;91.80;;;;;;5101357;28;20432;-72
2023/12/08 02:45:53;;;;;;;24.30;14.57;;;1.60;91.70;;;;;;5105205;28;20924;-72
2023/12/08 02:48:18;;;;;;;23.97;14.93;;;1.60;91.60;;;;;;5100324;28;20437;-73
2023/12/08 02:50:44;;;;;;;22.77;14.70;;;1.60;91.30;;;;;;5104714;28;20451;-73
2023/12/08 02:53:09;;;;;;;21.33;15.13;;;1.60;91.30;;;;;;5099920;28;20945;-72
2023/12/08 02:55:35;;;;;;;21.27;14.10;;;1.60;91.30;;;;;;5104351;28;20424;-73
2023/12/08 02:58:01;;;;;;;21.97;14.00;;;1.60;91.10;;;;;;5099318;28;20479;-73
2023/12/08 03:00:27;;;;;;;22.70;14.80;;;1.60;91.00;;;;;;5105300;28;20432;-72
2023/12/08 03:02:52;;;;;;;22.30;14.25;;;1.60;91.00;;;;;;5097223;28;20804;-72
2023/12/08 03:05:18;;;;;;;19.93;13.47;;;1.60;90.90;;;;;;5090089;28;20455;-72
2023/12/08 03:07:44;;;;;;;21.30;14.23;;;1.60;90.40;;;;;;5081768;28;20397;-72
2023/12/08 03:10:09;;;;;;;19.63;13.57;;;1.60;90.30;;;;;;5095729;28;20410;-72
2023/12/08 03:12:35;;;;;;;22.63;13.80;;;1.60;90.00;;;;;;5091776;28;20413;-73
2023/12/08 03:15:01;;;;;;;18.15;13.02;;;1.60;90.00;;;;;;5099140;28;20427;-73
2023/12/08 03:17:27;;;;;;;22.55;13.88;;;1.60;88.60;;;;;;5100430;28;20451;-73
2023/12/08 03:19:52;;;;;;;19.50;13.50;;;1.60;88.30;;;;;;5095520;28;20444;-73
2023/12/08 03:22:18;;;;;;;19.27;13.23;;;1.60;87.10;;;;;;5090842;28;20433;-73
2023/12/08 03:24:43;;;;;;;20.63;13.57;;;1.60;87.50;;;;;;5105388;28;20408;-73
2023/12/08 03:27:09;;;;;;;19.67;13.20;;;1.70;87.70;;;;;;5099876;28;20455;-72
2023/12/08 03:29:39;;;;;;;21.45;14.00;;;1.60;87.40;;;;;;5105915;28;20503;-73
2023/12/08 03:32:05;;;;;;;18.90;12.13;;;1.70;87.60;;;;;;5095933;28;20413;-72
2023/12/08 03:34:30;;;;;;;21.23;13.30;;;1.70;86.70;;;;;;5105376;27;20401;-73
2023/12/08 03:36:56;;;;;;;20.03;13.30;;;1.70;87.10;;;;;;5100809;28;20410;-73
2023/12/08 03:39:22;;;;;;;20.80;13.07;;;1.70;86.80;;;;;;5103182;28;20902;-72
2023/12/08 03:41:47;;;;;;;19.17;13.40;;;1.70;86.70;;;;;;5100699;28;20457;-72
2023/12/08 03:44:14;;;;;;;19.73;13.07;;;1.70;85.60;;;;;;5103936;28;20404;-73
2023/12/08 03:46:42;;;;;;;20.70;12.98;;;1.70;86.20;;;;;;5091332;28;20444;-73
2023/12/08 03:49:08;;;;;;;21.33;12.98;;;1.70;85.80;;;;;;5102807;28;20412;-72
2023/12/08 03:51:33;;;;;;;20.73;13.67;;;1.70;84.70;;;;;;5099803;28;20443;-72
2023/12/08 03:53:59;;;;;;;20.75;13.07;;;1.70;84.50;;;;;;5103446;28;20489;-72
2023/12/08 03:56:25;;;;;;;18.90;13.13;;;1.70;84.60;;;;;;5099283;28;20981;-73
2023/12/08 03:58:51;;;;;;;18.25;12.32;;;1.70;83.50;;;;;;5103303;28;20460;-72
2023/12/08 04:01:20;;;;;;;18.20;12.73;;;1.70;84.40;;;;;;5100508;28;20864;-72
2023/12/08 04:03:46;;;;;;;18.88;12.60;;;1.70;84.40;;;;;;5103560;28;20414;-72
2023/12/08 04:06:12;;;;;;;19.35;12.75;;;1.70;84.50;;;;;;5099311;28;20404;-73
2023/12/08 04:08:37;;;;;;;19.45;12.77;;;1.70;84.10;;;;;;5102481;28;20479;-72
2023/12/08 04:11:03;;;;;;;18.70;12.80;;;1.70;84.60;;;;;;5097723;28;20467;-72
2023/12/08 04:13:29;;;;;;;19.77;12.97;;;1.70;84.90;;;;;;5102011;28;20404;-72
2023/12/08 04:15:55;;;;;;;19.03;13.03;;;1.70;84.60;;;;;;5099317;28;20410;-72
2023/12/08 04:18:20;;;;;;;18.52;12.73;;;1.80;82.20;;;;;;5093724;28;20424;-73
2023/12/08 04:20:46;;;;;;;19.20;13.23;;;1.70;82.90;;;;;;5091104;28;20406;-73
2023/12/08 04:23:11;;;;;;;19.13;12.77;;;1.70;82.70;;;;;;5104924;28;20447;-72
2023/12/08 04:25:37;;;;;;;18.00;12.48;;;1.70;81.00;;;;;;5099690;28;20406;-73
2023/12/08 04:28:04;;;;;;;18.23;12.73;;;1.70;80.90;;;;;;5104001;28;20403;-72
2023/12/08 04:30:29;;;;;;;20.10;12.45;;;1.70;81.70;;;;;;5099539;28;20442;-72
2023/12/08 04:32:55;;;;;;;17.70;12.30;;;1.80;80.60;;;;;;5103832;28;20408;-73
2023/12/08 04:35:24;;;;;;;18.75;12.30;;;1.80;80.70;;;;;;5098204;28;20440;-72
2023/12/08 04:37:50;;;;;;;19.40;12.52;;;1.80;80.50;;;;;;5101373;28;20443;-73
2023/12/08 04:40:16;;;;;;;21.15;12.68;;;1.80;79.30;;;;;;5099626;28;20410;-72
2023/12/08 04:42:42;;;;;;;18.33;12.15;;;1.80;78.80;;;;;;5102464;28;20477;-72
2023/12/08 04:45:09;;;;;;;19.25;12.80;;;1.80;78.50;;;;;;5099719;28;20410;-73
2023/12/08 04:47:36;;;;;;;19.70;12.70;;;1.70;78.80;;;;;;5092988;28;20417;-73
2023/12/08 04:50:02;;;;;;;18.25;12.63;;;1.80;79.20;;;;;;5091642;28;20406;-72
2023/12/08 04:52:28;;;;;;;18.48;12.75;;;1.80;78.70;;;;;;5102227;28;20768;-72
2023/12/08 04:54:54;;;;;;;19.00;12.48;;;1.70;79.00;;;;;;5097120;28;20418;-73
2023/12/08 04:57:20;;;;;;;19.85;12.20;;;1.80;78.60;;;;;;5096887;28;20396;-73
2023/12/08 04:59:45;;;;;;;18.60;12.48;;;1.80;78.50;;;;;;5099326;28;20443;-73
2023/12/08 05:02:11;;;;;;;19.25;12.95;;;1.80;79.40;;;;;;5101854;28;20428;-72
2023/12/08 05:04:37;;;;;;;19.45;12.60;;;1.80;79.80;;;;;;5098799;28;20404;-73
2023/12/08 05:07:03;;;;;;;19.83;12.67;;;1.80;80.80;;;;;;5101338;28;20410;-73
2023/12/08 05:09:28;;;;;;;19.02;13.00;;;1.80;80.90;;;;;;5099127;28;20772;-73
2023/12/08 05:11:54;;;;;;;20.10;13.20;;;1.70;80.90;;;;;;5093560;28;20421;-73
2023/12/08 05:14:20;;;;;;;20.88;13.70;;;1.70;81.90;;;;;;5098998;28;20489;-73
2023/12/08 05:16:45;;;;;;;22.37;14.17;;;1.70;82.60;;;;;;5099478;28;20525;-73
2023/12/08 05:19:11;;;;;;;19.83;13.63;;;1.70;83.50;;;;;;5094235;28;20916;-73
2023/12/08 05:21:36;;;;;;;24.23;14.65;;;1.60;84.10;;;;;;5087667;28;20422;-73
2023/12/08 05:24:02;;;;;;;20.50;13.90;;;1.60;85.10;;;;;;5099403;28;20410;-73
2023/12/08 05:26:28;;;;;;;21.30;14.37;;;1.60;85.80;;;;;;5102284;28;20449;-73
2023/12/08 05:28:53;;;;;;;22.20;14.30;;;1.60;86.30;;;;;;5097285;28;20418;-73
2023/12/08 05:31:19;;;;;;;21.53;14.57;;;1.50;87.10;;;;;;5100848;28;20408;-73
2023/12/08 05:33:45;;;;;;;22.00;14.27;;;1.50;88.40;;;;;;5089722;28;20413;-73
2023/12/08 05:36:11;;;;;;;25.27;15.67;;;1.50;89.10;;;;;;5101952;28;20797;-74
2023/12/08 05:38:36;;;;;;;22.57;14.30;;;1.50;90.00;;;;;;5096491;28;20394;-74
2023/12/08 05:41:03;;;;;;;25.13;15.13;;;1.40;90.20;;;;;;5094948;28;20405;-73
2023/12/08 05:43:29;;;;;;;26.07;16.17;;;1.40;90.50;;;;;;5097032;28;20834;-73
2023/12/08 05:45:55;;;;;;;24.48;16.33;;;1.40;90.90;;;;;;5100673;28;20400;-74
2023/12/08 05:48:21;;;;;;;25.40;16.00;;;1.40;91.50;;;;;;5093921;28;20410;-73
2023/12/08 05:50:47;;;;;;;25.42;15.38;;;1.40;91.40;;;;;;5081120;28;20482;-73
2023/12/08 05:53:13;;;;;;;23.17;15.00;;;1.30;91.50;;;;;;5076904;28;20398;-73
2023/12/08 05:55:39;;;;;;;26.05;15.77;;;1.30;92.00;;;;;;5082048;28;20416;-73
2023/12/08 05:58:05;;;;;;;26.02;16.38;;;1.30;92.00;;;;;;5094714;28;20449;-74
2023/12/08 06:00:30;;;;;;;25.70;16.95;;;1.40;92.30;;;;;;5096925;28;20457;-73
2023/12/08 06:02:56;;;;;;;26.95;16.90;;;1.30;92.40;;;;;;5093600;28;20499;-74
2023/12/08 06:05:22;;;;;;;27.17;15.90;;;1.30;92.50;;;;;;5099211;28;20392;-74
2023/12/08 06:07:47;;;;;;;25.65;16.02;;;1.30;92.80;;;;;;5093153;28;20405;-73
2023/12/08 06:10:13;;;;;;;25.80;16.63;;;1.30;92.80;;;;;;5097732;28;20404;-73
2023/12/08 06:12:39;;;;;;;27.20;16.93;;;1.30;93.10;;;;;;5093531;28;20907;-73
2023/12/08 06:15:09;;;;;;;26.47;16.20;;;1.30;93.20;;;;;;5092933;28;20398;-73
2023/12/08 06:17:36;;;;;;;29.90;17.73;;;1.30;93.20;;;;;;5086927;28;20744;-73
2023/12/08 06:20:04;;;;;;;28.75;18.05;;;1.30;93.70;;;;;;5091123;28;20486;-73
2023/12/08 06:22:30;;;;;;;29.33;17.70;;;1.30;93.80;;;;;;5096230;28;20434;-73
2023/12/08 06:24:56;;;;;;;28.52;17.40;;;1.30;93.80;;;;;;5098970;28;20456;-73
2023/12/08 06:27:22;;;;;;;29.75;17.58;;;1.20;94.00;;;;;;5088484;28;20410;-73
2023/12/08 06:29:50;;;;;;;29.77;18.13;;;1.20;94.10;;;;;;5098650;28;20404;-73
2023/12/08 06:32:16;;;;;;;30.30;18.30;;;1.30;94.70;;;;;;5095741;28;20448;-73
2023/12/08 06:34:41;;;;;;;31.13;18.43;;;1.20;94.20;;;;;;5097628;28;20424;-74
2023/12/08 06:37:07;;;;;;;31.90;18.67;;;1.20;94.50;;;;;;5094446;28;20780;-71
2023/12/08 06:39:32;;;;;;;31.80;18.52;;;1.20;94.60;;;;;;5092891;28;20404;-70
2023/12/08 06:41:58;;;;;;;31.10;18.60;;;1.20;94.80;;;;;;5092936;28;21064;-71
2023/12/08 06:44:23;;;;;;;31.53;18.37;;;1.10;94.90;;;;;;5091527;28;20459;-72
2023/12/08 06:46:49;;;;;;;35.33;19.65;;;1.10;95.20;;;;;;5082436;28;20423;-73
2023/12/08 06:49:15;;;;;;;34.30;19.37;;;1.20;95.30;;;;;;5096552;28;20420;-73
2023/12/08 06:51:40;;;;;;;36.38;18.90;;;1.10;95.40;;;;;;5091960;28;20410;-73
2023/12/08 06:54:06;;;;;;;34.25;18.67;;;1.10;95.60;;;;;;5095563;28;20412;-73
2023/12/08 06:56:31;;;;;;;36.77;19.97;;;1.10;95.60;;;;;;5091376;28;20409;-73
2023/12/08 06:58:57;;;;;;;34.03;19.15;;;1.10;95.70;;;;;;5093233;28;20934;-74
2023/12/08 07:01:23;;;;;;;36.00;19.17;;;1.10;95.80;;;;;;5089567;28;20489;-73
2023/12/08 07:03:48;;;;;;;36.93;19.93;;;1.10;95.90;;;;;;5090914;28;20419;-73
2023/12/08 07:06:14;;;;;;;35.42;19.73;;;1.10;96.10;;;;;;5089628;28;20401;-73
2023/12/08 07:08:40;;;;;;;37.72;19.08;;;1.10;96.20;;;;;;5085775;28;20875;-73
2023/12/08 07:11:06;;;;;;;35.45;19.55;;;1.10;96.30;;;;;;5088732;28;20410;-73
2023/12/08 07:13:31;;;;;;;38.28;20.30;;;1.10;96.30;;;;;;5088599;28;20540;-73
2023/12/08 07:15:57;;;;;;;41.27;20.97;;;1.10;96.60;;;;;;5088605;28;20472;-74
2023/12/08 07:18:23;;;;;;;39.22;21.02;;;1.10;96.60;;;;;;5091154;28;20887;-73
2023/12/08 07:20:48;;;;;;;39.95;20.45;;;1.10;96.40;;;;;;5088549;28;20906;-73
2023/12/08 07:23:14;;;;;;;41.07;20.80;;;1.10;96.50;;;;;;5099913;28;20432;-73
2023/12/08 07:25:39;;;;;;;38.90;20.35;;;1.10;96.60;;;;;;5096954;28;20413;-73
2023/12/08 07:28:05;;;;;;;39.78;20.88;;;1.10;96.80;;;;;;5101438;28;20770;-73
2023/12/08 07:30:31;;;;;;;39.40;20.30;;;1.10;97.00;;;;;;5099960;28;20484;-73
2023/12/08 07:32:56;;;;;;;41.83;21.53;;;1.10;97.20;;;;;;5102639;28;20488;-73
2023/12/08 07:35:22;;;;;;;41.92;21.30;;;1.10;97.40;;;;;;5091911;28;20413;-73
2023/12/08 07:37:49;;;;;;;40.80;20.80;;;1.10;97.40;;;;;;5102868;28;20407;-73
2023/12/08 07:40:14;;;;;;;40.95;21.40;;;1.10;97.30;;;;;;5099091;28;20417;-73
2023/12/08 07:42:41;;;;;;;39.47;20.75;;;1.10;97.10;;;;;;5102182;28;20427;-73
2023/12/08 07:45:08;;;;;;;40.33;20.67;;;1.10;97.30;;;;;;5098810;28;20814;-73
2023/12/08 07:47:33;;;;;;;41.72;21.45;;;1.10;97.30;;;;;;5102606;27;21269;-73
2023/12/08 07:49:59;;;;;;;42.27;20.53;;;1.10;97.50;;;;;;5098383;28;20398;-73
2023/12/08 07:52:26;;;;;;;39.33;19.63;;;1.10;97.60;;;;;;5101132;28;20408;-74
2023/12/08 07:54:51;;;;;;;39.55;21.23;;;1.10;97.60;;;;;;5097955;28;20939;-73
2023/12/08 07:57:18;;;;;;;39.47;20.77;;;1.10;97.70;;;;;;5101027;28;20404;-73
2023/12/08 07:59:44;;;;;;;42.40;21.75;;;1.10;97.70;;;;;;5096219;28;20414;-74
2023/12/08 08:02:10;;;;;;;42.25;20.98;;;1.10;97.90;;;;;;5096790;28;20428;-73
2023/12/08 08:04:35;;;;;;;40.35;21.17;;;1.10;98.00;;;;;;5107624;28;20814;-73
2023/12/08 08:07:01;;;;;;;42.13;21.10;;;1.10;98.00;;;;;;5099858;28;20422;-73
2023/12/08 08:09:26;;;;;;;39.43;19.80;;;1.20;98.10;;;;;;5096708;28;20436;-74
2023/12/08 08:11:52;;;;;;;37.25;19.15;;;1.20;98.60;;;;;;5099871;28;20409;-73
2023/12/08 08:14:20;;;;;;;38.10;19.33;;;1.20;98.50;;;;;;5095618;28;20434;-73
2023/12/08 08:16:47;;;;;;;38.38;19.52;;;1.20;98.50;;;;;;5098528;28;20928;-74
2023/12/08 08:19:13;;;;;;;40.30;19.85;;;1.20;98.30;;;;;;5077338;28;20406;-74
2023/12/08 08:21:38;;;;;;;36.28;19.00;;;1.20;98.40;;;;;;5096885;28;20416;-74
2023/12/08 08:24:04;;;;;;;39.97;20.03;;;1.20;98.60;;;;;;5099621;28;20420;-74
2023/12/08 08:26:30;;;;;;;39.20;19.65;;;1.20;98.40;;;;;;5084082;28;20765;-73
2023/12/08 08:28:56;;;;;;;39.63;19.67;;;1.20;98.30;;;;;;5096805;28;20425;-74
2023/12/08 08:31:21;;;;;;;37.28;19.38;;;1.20;98.70;;;;;;5101130;28;20434;-74
2023/12/08 08:33:47;;;;;;;38.40;19.27;;;1.20;98.50;;;;;;5090092;28;20406;-74
2023/12/08 08:36:13;;;;;;;39.13;19.40;;;1.20;98.60;;;;;;5100722;28;20739;-74
2023/12/08 08:38:38;;;;;;;36.63;19.17;;;1.20;98.50;;;;;;5095426;28;20410;-74
2023/12/08 08:41:04;;;;;;;39.88;20.25;;;1.30;98.50;;;;;;5100267;28;20400;-75
2023/12/08 08:43:30;;;;;;;39.83;20.13;;;1.30;98.50;;;;;;5096512;28;20426;-74
2023/12/08 08:45:55;;;;;;;39.17;20.10;;;1.30;98.80;;;;;;5099759;28;20405;-74
2023/12/08 08:48:21;;;;;;;37.72;20.23;;;1.30;98.40;;;;;;5096143;28;20413;-74
2023/12/08 08:50:48;;;;;;;39.57;20.60;;;1.30;98.40;;;;;;5100051;28;20411;-74
2023/12/08 08:53:17;;;;;;;39.22;19.67;;;1.20;98.50;;;;;;5095763;28;20598;-74
2023/12/08 08:55:44;;;;;;;41.60;20.23;;;1.30;98.60;;;;;;5093452;28;20788;-74
2023/12/08 08:58:09;;;;;;;37.47;19.45;;;1.30;98.70;;;;;;5095096;28;20599;-74
2023/12/08 09:00:35;;;;;;;40.92;20.98;;;1.30;98.70;;;;;;5100317;28;20416;-73
2023/12/08 09:03:02;;;;;;;39.17;19.92;;;1.30;98.70;;;;;;5095024;28;20441;-74
2023/12/08 09:05:27;;;;;;;38.87;19.87;;;1.30;98.70;;;;;;5098466;28;20397;-74
2023/12/08 09:07:54;;;;;;;40.53;21.53;;;1.30;98.70;;;;;;5094781;28;20785;-74
2023/12/08 09:10:20;;;;;;;44.40;22.53;;;1.30;98.70;;;;;;5098383;28;20408;-74
2023/12/08 09:12:46;;;;;;;40.22;20.85;;;1.30;98.80;;;;;;5096449;28;20414;-74
2023/12/08 09:15:13;;;;;;;40.78;20.48;;;1.30;98.80;;;;;;5080548;28;20941;-74
2023/12/08 09:17:39;;;;;;;40.20;20.77;;;1.30;98.80;;;;;;5094527;28;20406;-74
2023/12/08 09:20:07;;;;;;;40.13;20.85;;;1.30;98.80;;;;;;5090962;28;20436;-74
2023/12/08 09:22:34;;;;;;;40.07;20.97;;;1.30;98.90;;;;;;5099871;28;20508;-74
2023/12/08 09:25:00;;;;;;;43.83;21.52;;;1.30;98.90;;;;;;5100294;28;20436;-74
2023/12/08 09:27:26;;;;;;;40.23;20.23;;;1.30;98.90;;;;;;5099562;28;20804;-74
2023/12/08 09:29:51;;;;;;;41.17;20.80;;;1.30;98.90;;;;;;5100989;28;20420;-74
2023/12/08 09:32:17;;;;;;;40.50;20.95;;;1.30;98.90;;;;;;5101653;28;20458;-74
2023/12/08 09:34:43;;;;;;;41.07;20.43;;;1.40;99.00;;;;;;5091561;28;20485;-74
2023/12/08 09:37:08;;;;;;;36.87;20.17;;;1.40;98.90;;;;;;5101287;28;20408;-74
2023/12/08 09:39:34;;;;;;;42.13;20.95;;;1.40;98.90;;;;;;5100767;28;20849;-74
2023/12/08 09:42:06;;;;;;;39.07;20.27;;;1.40;99.00;;;;;;5099436;28;20435;-74
2023/12/08 09:44:33;;;;;;;40.37;19.93;;;1.40;98.90;;;;;;5098663;28;21135;-74
2023/12/08 09:47:02;;;;;;;40.63;20.43;;;1.40;99.00;;;;;;5100480;28;20396;-74
2023/12/08 09:49:30;;;;;;;41.28;20.17;;;1.40;99.10;;;;;;5090171;28;20768;-74
2023/12/08 09:51:57;;;;;;;39.10;19.98;;;1.40;99.00;;;;;;5091561;28;20457;-74
2023/12/08 09:54:23;;;;;;;40.97;20.63;;;1.40;99.00;;;;;;5089945;28;20406;-74
2023/12/08 09:56:54;;;;;;;41.53;20.08;;;1.40;99.00;;;;;;5082443;28;20404;-73
2023/12/08 09:59:25;;;;;;;38.47;19.75;;;1.40;98.90;;;;;;5087678;28;20410;-74
2023/12/08 10:01:51;;;;;;;39.33;20.25;;;1.40;98.90;;;;;;5100241;28;20421;-74
2023/12/08 10:04:17;;;;;;;42.50;20.85;;;1.40;98.90;;;;;;5094501;28;20402;-74
2023/12/08 10:06:43;;;;;;;40.65;20.40;;;1.40;99.00;;;;;;5098607;28;20407;-74
2023/12/08 10:09:11;;;;;;;42.65;20.48;;;1.40;99.10;;;;;;5093666;28;20406;-74
2023/12/08 10:11:38;;;;;;;42.23;20.73;;;1.50;99.10;;;;;;5099660;28;20400;-74
2023/12/08 10:14:04;;;;;;;40.70;20.77;;;1.50;99.10;;;;;;5093661;28;20907;-74
2023/12/08 10:16:30;;;;;;;38.78;19.42;;;1.50;99.20;;;;;;5092802;28;20485;-74
2023/12/08 10:19:09;;;;;;;38.40;20.50;;;1.50;99.10;;;;;;5092551;28;20485;-74
2023/12/08 10:21:35;;;;;;;40.78;20.65;;;1.50;99.40;;;;;;5096531;28;20440;-74
2023/12/08 10:24:05;;;;;;;41.78;21.20;;;1.50;99.20;;;;;;5097733;28;20955;-74
2023/12/08 10:26:32;;;;;;;40.70;21.05;;;1.50;99.20;;;;;;5092405;28;20741;-74
2023/12/08 10:28:59;;;;;;;39.75;20.60;;;1.60;99.20;;;;;;5097943;28;20412;-74
2023/12/08 10:31:26;;;;;;;40.63;20.85;;;1.60;99.20;;;;;;5101104;28;20513;-74
2023/12/08 10:33:52;;;;;;;41.03;21.20;;;1.60;99.10;;;;;;5098748;28;20422;-74
2023/12/08 10:36:18;;;;;;;38.57;20.00;;;1.60;99.00;;;;;;5091618;28;20421;-73
2023/12/08 10:38:46;;;;;;;38.72;20.92;;;1.60;99.00;;;;;;5099441;28;20894;-74
2023/12/08 10:41:13;;;;;;;39.83;20.25;;;1.60;99.00;;;;;;5099464;28;20423;-74
2023/12/08 10:43:39;;;;;;;41.78;20.73;;;1.60;99.00;;;;;;5098908;28;20424;-74
2023/12/08 10:46:06;;;;;;;40.03;20.58;;;1.60;99.10;;;;;;5099009;28;20487;-74
2023/12/08 10:48:33;;;;;;;40.42;20.95;;;1.60;99.10;;;;;;5096354;28;20405;-74
2023/12/08 10:50:58;;;;;;;42.05;20.83;;;1.60;99.10;;;;;;5097780;28;20407;-74
2023/12/08 10:53:25;;;;;;;39.50;20.45;;;1.60;99.10;;;;;;5103023;28;20413;-74
2023/12/08 10:55:55;;;;;;;38.60;20.20;;;1.60;99.10;;;;;;5093705;28;20415;-74
2023/12/08 10:58:22;;;;;;;39.57;20.77;;;1.70;99.10;;;;;;5098255;28;20471;-74
2023/12/08 11:00:53;;;;;;;41.03;21.98;;;1.70;99.10;;;;;;5098969;28;21003;-74
2023/12/08 11:03:23;;;;;;;44.63;21.67;;;1.70;99.20;;;;;;5102324;28;20427;-74
2023/12/08 11:06:04;;;;;;;40.53;21.52;;;1.70;99.30;;;;;;5093196;28;20423;-74
2023/12/08 11:08:30;;;;;;;43.17;21.30;;;1.80;99.30;;;;;;5094024;28;20464;-74
2023/12/08 11:10:57;;;;;;;41.30;21.65;;;1.80;99.20;;;;;;5093514;28;20408;-74
2023/12/08 11:13:29;;;;;;;43.35;21.83;;;1.80;99.20;;;;;;5103557;28;20498;-74
2023/12/08 11:16:03;;;;;;;44.63;21.58;;;1.80;99.20;;;;;;5091668;28;20413;-74
2023/12/08 11:18:30;;;;;;;41.92;21.60;;;1.80;99.10;;;;;;5102115;28;20998;-73
2023/12/08 11:20:56;;;;;;;42.97;21.20;;;1.90;99.20;;;;;;5093649;28;20408;-74
2023/12/08 11:23:23;;;;;;;41.22;21.13;;;1.90;99.20;;;;;;5102799;28;20431;-74
2023/12/08 11:26:01;;;;;;;46.17;21.83;;;1.90;99.20;;;;;;5103000;28;20408;-74
2023/12/08 11:28:43;;;;;;;46.10;22.08;;;1.90;99.20;;;;;;5101211;28;20803;-74
2023/12/08 11:31:20;;;;;;;43.33;21.30;;;1.90;99.20;;;;;;5098754;28;20503;-74
2023/12/08 11:34:01;;;;;;;44.95;21.73;;;1.90;99.20;;;;;;5097557;28;20390;-74
2023/12/08 11:36:28;;;;;;;40.95;21.65;;;1.90;99.10;;;;;;5103802;28;20430;-74
2023/12/08 11:38:55;;;;;;;44.78;21.63;;;1.90;99.20;;;;;;5094936;28;20442;-74
2023/12/08 11:41:23;;;;;;;47.53;22.45;;;1.90;99.50;;;;;;5103541;28;20449;-74
2023/12/08 11:43:48;;;;;;;44.67;22.42;;;2.00;99.30;;;;;;5104383;28;20789;-74
2023/12/08 11:46:15;;;;;;;45.42;22.42;;;1.90;99.20;;;;;;5099924;28;20396;-74
2023/12/08 11:48:42;;;;;;;42.47;21.95;;;1.90;99.20;;;;;;5101939;28;20450;-74
2023/12/08 11:51:07;;;;;;;43.58;21.65;;;1.90;99.20;;;;;;5101682;28;21176;-74
2023/12/08 11:53:48;;;;;;;47.85;22.48;;;1.90;99.10;;;;;;5093462;28;20404;-74
2023/12/08 11:56:38;;;;;;;46.45;22.10;;;1.90;99.20;;;;;;5099233;27;20414;-74
2023/12/08 11:59:05;;;;;;;46.75;22.35;;;1.90;99.40;;;;;;5091767;28;20404;-74
2023/12/08 12:01:30;;;;;;;45.55;22.15;;;2.00;99.50;;;;;;5098239;28;20405;-74
2023/12/08 12:03:56;;;;;;;47.00;22.40;;;2.00;99.40;;;;;;5079116;28;20448;-74
2023/12/08 12:06:23;;;;;;;47.25;22.48;;;2.00;99.30;;;;;;5099251;28;20406;-74
2023/12/08 12:08:50;;;;;;;46.00;22.20;;;2.00;99.20;;;;;;5100460;28;20415;-74
2023/12/08 12:11:20;;;;;;;46.42;22.35;;;2.10;99.20;;;;;;5092063;28;21001;-74
2023/12/08 12:13:46;;;;;;;45.90;21.95;;;2.00;99.10;;;;;;5100587;28;20488;-74
2023/12/08 12:16:11;;;;;;;46.03;21.88;;;2.10;99.20;;;;;;5100767;28;20384;-74
2023/12/08 12:18:38;;;;;;;46.50;22.35;;;2.00;99.30;;;;;;5100400;28;21400;-74
2023/12/08 12:21:03;;;;;;;46.25;21.60;;;2.00;99.30;;;;;;5094777;28;20394;-74
2023/12/08 12:23:29;;;;;;;50.40;22.33;;;2.10;99.40;;;;;;5102045;28;20434;-74
2023/12/08 12:25:55;;;;;;;49.33;23.13;;;2.00;99.40;;;;;;5097080;28;20437;-75
2023/12/08 12:28:20;;;;;;;47.63;23.50;;;2.00;99.40;;;;;;5098774;28;20553;-74
2023/12/08 12:30:49;;;;;;;46.92;22.58;;;2.10;99.40;;;;;;5102557;28;20411;-74
2023/12/08 12:33:15;;;;;;;45.35;22.55;;;2.00;99.30;;;;;;5088567;28;20412;-74